Main page
METAR-TAF:

METAR-TAF

Airports :

London Stansted Airport

London-Stansted, England

latitude: 51-53N, longitude: 000-14E, elevation: 106 m

Current weather observation

The report was made 31 minutes ago, at 03:50 UTC
Wind 3 kt from the North/Northwest
Temperature 2°C
Humidity 87%
Pressure 1040 hPa
Visibility: 9000 m

METAR: EGSS 270350Z AUTO 33003KT 9000 NCD 02/00 Q1040

Time: 04:21 (04:21 UTC)

Forecast

The report was made 5 hours and 19 minutes ago, at 23:02 UTC
Forecast valid from 27 at 00 UTC to 28 at 06 UTC
Wind 5 kt from the Northwest
Visibility 10 km or more
Few clouds at a height of 3500 ft
Probability 30%
from 27 at 03 UTC to 27 at 09 UTC
Visibility: 7000 m
Becoming
from 28 at 00 UTC to 28 at 03 UTC
Visibility: 6000 m
Probability 40%
from 28 at 02 UTC to 28 at 06 UTC
Visibility: 0300 m
Broken clouds at a height of 100 ft
fog

TAF: EGSS 262302Z 2700/2806 31005KT 9999 FEW035 PROB30 2703/2709 7000 BECMG 2800/2803 6000 PROB40 2802/2806 0300 FG BKN001

Weather observations and forecasts of more than 4000 airports (METAR and TAF reports).

The available stations are represented by yellow and red dots on the map.

Hover mouse over dot to see the name of the station.

Then click to see weather observations and forecasts.

To change the map : click on the green buttons with a black cross to zoom in, on the green button with a dash to zoom out, or on the green arrows for adjacent maps.


METAR-TAF: